sensor_id;sensor_type;location;lat;lon;timestamp;P1;P2;P0
63305;PMS5003;50735;52.060;1.248;2023-04-03T00:01:58;5;5;
63305;PMS5003;50735;52.060;1.248;2023-04-03T00:04:29;7;3;
63305;PMS5003;50735;52.060;1.248;2023-04-03T00:07:01;3;3;
63305;PMS5003;50735;52.060;1.248;2023-04-03T00:09:33;7;2;
63305;PMS5003;50735;52.060;1.248;2023-04-03T00:12:05;5;4;
63305;PMS5003;50735;52.060;1.248;2023-04-03T00:14:37;5;4;
63305;PMS5003;50735;52.060;1.248;2023-04-03T00:17:09;6;5;
63305;PMS5003;50735;52.060;1.248;2023-04-03T00:19:41;2;2;
63305;PMS5003;50735;52.060;1.248;2023-04-03T00:22:13;3;2;
63305;PMS5003;50735;52.060;1.248;2023-04-03T00:24:45;2;2;
63305;PMS5003;50735;52.060;1.248;2023-04-03T00:27:17;4;3;
63305;PMS5003;50735;52.060;1.248;2023-04-03T00:29:49;5;5;
63305;PMS5003;50735;52.060;1.248;2023-04-03T00:32:21;5;4;
63305;PMS5003;50735;52.060;1.248;2023-04-03T00:34:53;4;4;
63305;PMS5003;50735;52.060;1.248;2023-04-03T00:37:25;6;5;
63305;PMS5003;50735;52.060;1.248;2023-04-03T00:39:57;6;4;
63305;PMS5003;50735;52.060;1.248;2023-04-03T00:42:29;6;3;
63305;PMS5003;50735;52.060;1.248;2023-04-03T00:45:34;5;5;
63305;PMS5003;50735;52.060;1.248;2023-04-03T00:48:09;4;4;
63305;PMS5003;50735;52.060;1.248;2023-04-03T00:50:45;3;3;
63305;PMS5003;50735;52.060;1.248;2023-04-03T00:53:19;4;4;
63305;PMS5003;50735;52.060;1.248;2023-04-03T00:55:54;4;3;
63305;PMS5003;50735;52.060;1.248;2023-04-03T00:58:28;4;3;
63305;PMS5003;50735;52.060;1.248;2023-04-03T01:01:05;6;4;
63305;PMS5003;50735;52.060;1.248;2023-04-03T01:03:39;7;3;
63305;PMS5003;50735;52.060;1.248;2023-04-03T01:06:11;5;4;
63305;PMS5003;50735;52.060;1.248;2023-04-03T01:08:46;8;8;
63305;PMS5003;50735;52.060;1.248;2023-04-03T01:11:21;3;3;
63305;PMS5003;50735;52.060;1.248;2023-04-03T01:13:53;3;3;
63305;PMS5003;50735;52.060;1.248;2023-04-03T01:16:25;4;2;
63305;PMS5003;50735;52.060;1.248;2023-04-03T01:18:57;6;4;
63305;PMS5003;50735;52.060;1.248;2023-04-03T01:21:36;5;4;
63305;PMS5003;50735;52.060;1.248;2023-04-03T01:24:27;5;3;
63305;PMS5003;50735;52.060;1.248;2023-04-03T01:27:05;4;3;
63305;PMS5003;50735;52.060;1.248;2023-04-03T01:29:39;3;3;
63305;PMS5003;50735;52.060;1.248;2023-04-03T01:32:12;3;2;
63305;PMS5003;50735;52.060;1.248;2023-04-03T01:34:44;4;3;
63305;PMS5003;50735;52.060;1.248;2023-04-03T01:37:16;5;2;
63305;PMS5003;50735;52.060;1.248;2023-04-03T01:39:48;7;4;
63305;PMS5003;50735;52.060;1.248;2023-04-03T01:42:20;2;2;
63305;PMS5003;50735;52.060;1.248;2023-04-03T01:44:52;6;4;
63305;PMS5003;50735;52.060;1.248;2023-04-03T01:47:24;4;4;
63305;PMS5003;50735;52.060;1.248;2023-04-03T01:49:56;4;3;
63305;PMS5003;50735;52.060;1.248;2023-04-03T01:52:27;7;4;
63305;PMS5003;50735;52.060;1.248;2023-04-03T01:54:59;9;1;
63305;PMS5003;50735;52.060;1.248;2023-04-03T01:57:31;6;3;
63305;PMS5003;50735;52.060;1.248;2023-04-03T02:00:03;3;2;
63305;PMS5003;50735;52.060;1.248;2023-04-03T02:02:36;5;3;
63305;PMS5003;50735;52.060;1.248;2023-04-03T02:05:08;3;3;
63305;PMS5003;50735;52.060;1.248;2023-04-03T02:07:40;4;2;
63305;PMS5003;50735;52.060;1.248;2023-04-03T02:10:12;10;6;
63305;PMS5003;50735;52.060;1.248;2023-04-03T02:12:44;5;3;
63305;PMS5003;50735;52.060;1.248;2023-04-03T02:15:16;2;2;
63305;PMS5003;50735;52.060;1.248;2023-04-03T02:17:48;3;3;
63305;PMS5003;50735;52.060;1.248;2023-04-03T02:20:20;6;4;
63305;PMS5003;50735;52.060;1.248;2023-04-03T02:22:52;3;3;
63305;PMS5003;50735;52.060;1.248;2023-04-03T02:25:24;4;3;
63305;PMS5003;50735;52.060;1.248;2023-04-03T02:27:56;7;4;
63305;PMS5003;50735;52.060;1.248;2023-04-03T02:30:28;5;3;
63305;PMS5003;50735;52.060;1.248;2023-04-03T02:33:00;4;4;
63305;PMS5003;50735;52.060;1.248;2023-04-03T02:35:32;2;2;
63305;PMS5003;50735;52.060;1.248;2023-04-03T02:38:04;2;2;
63305;PMS5003;50735;52.060;1.248;2023-04-03T02:40:35;4;2;
63305;PMS5003;50735;52.060;1.248;2023-04-03T02:43:07;4;4;
63305;PMS5003;50735;52.060;1.248;2023-04-03T02:45:39;2;2;
63305;PMS5003;50735;52.060;1.248;2023-04-03T02:48:11;5;4;
63305;PMS5003;50735;52.060;1.248;2023-04-03T02:50:43;3;2;
63305;PMS5003;50735;52.060;1.248;2023-04-03T02:53:15;3;3;
63305;PMS5003;50735;52.060;1.248;2023-04-03T02:55:47;3;3;
63305;PMS5003;50735;52.060;1.248;2023-04-03T02:58:19;6;1;
63305;PMS5003;50735;52.060;1.248;2023-04-03T03:00:51;2;2;
63305;PMS5003;50735;52.060;1.248;2023-04-03T03:03:23;3;3;
63305;PMS5003;50735;52.060;1.248;2023-04-03T03:06:00;5;2;
63305;PMS5003;50735;52.060;1.248;2023-04-03T03:08:34;4;3;
63305;PMS5003;50735;52.060;1.248;2023-04-03T03:11:06;2;2;
63305;PMS5003;50735;52.060;1.248;2023-04-03T03:13:39;5;3;
63305;PMS5003;50735;52.060;1.248;2023-04-03T03:16:11;4;3;
63305;PMS5003;50735;52.060;1.248;2023-04-03T03:18:43;5;3;
63305;PMS5003;50735;52.060;1.248;2023-04-03T03:21:15;7;5;
63305;PMS5003;50735;52.060;1.248;2023-04-03T03:23:47;4;4;
63305;PMS5003;50735;52.060;1.248;2023-04-03T03:26:19;6;3;
63305;PMS5003;50735;52.060;1.248;2023-04-03T03:28:51;4;4;
63305;PMS5003;50735;52.060;1.248;2023-04-03T03:31:22;5;3;
63305;PMS5003;50735;52.060;1.248;2023-04-03T03:33:54;3;3;
63305;PMS5003;50735;52.060;1.248;2023-04-03T03:36:26;6;5;
63305;PMS5003;50735;52.060;1.248;2023-04-03T03:38:58;5;5;
63305;PMS5003;50735;52.060;1.248;2023-04-03T03:41:30;2;2;
63305;PMS5003;50735;52.060;1.248;2023-04-03T03:44:02;3;3;
63305;PMS5003;50735;52.060;1.248;2023-04-03T03:46:34;6;5;
63305;PMS5003;50735;52.060;1.248;2023-04-03T03:49:06;3;3;
63305;PMS5003;50735;52.060;1.248;2023-04-03T03:51:38;5;3;
63305;PMS5003;50735;52.060;1.248;2023-04-03T03:54:11;5;3;
63305;PMS5003;50735;52.060;1.248;2023-04-03T03:56:44;4;4;
63305;PMS5003;50735;52.060;1.248;2023-04-03T03:59:16;4;4;
63305;PMS5003;50735;52.060;1.248;2023-04-03T04:01:48;3;3;
63305;PMS5003;50735;52.060;1.248;2023-04-03T04:04:19;6;6;
63305;PMS5003;50735;52.060;1.248;2023-04-03T04:06:51;6;5;
63305;PMS5003;50735;52.060;1.248;2023-04-03T04:09:23;5;4;
63305;PMS5003;50735;52.060;1.248;2023-04-03T04:11:55;5;2;
63305;PMS5003;50735;52.060;1.248;2023-04-03T04:14:27;5;3;
63305;PMS5003;50735;52.060;1.248;2023-04-03T04:16:59;5;4;
63305;PMS5003;50735;52.060;1.248;2023-04-03T04:19:31;5;3;
63305;PMS5003;50735;52.060;1.248;2023-04-03T04:22:03;4;4;
63305;PMS5003;50735;52.060;1.248;2023-04-03T04:24:35;4;4;
63305;PMS5003;50735;52.060;1.248;2023-04-03T04:27:07;6;5;
63305;PMS5003;50735;52.060;1.248;2023-04-03T04:29:39;3;3;
63305;PMS5003;50735;52.060;1.248;2023-04-03T04:32:11;3;3;
63305;PMS5003;50735;52.060;1.248;2023-04-03T04:34:43;6;6;
63305;PMS5003;50735;52.060;1.248;2023-04-03T04:37:15;3;3;
63305;PMS5003;50735;52.060;1.248;2023-04-03T04:39:47;6;3;
63305;PMS5003;50735;52.060;1.248;2023-04-03T04:42:19;6;6;
63305;PMS5003;50735;52.060;1.248;2023-04-03T04:44:51;3;3;
63305;PMS5003;50735;52.060;1.248;2023-04-03T04:47:23;5;3;
63305;PMS5003;50735;52.060;1.248;2023-04-03T04:49:55;6;3;
63305;PMS5003;50735;52.060;1.248;2023-04-03T04:52:27;11;10;
63305;PMS5003;50735;52.060;1.248;2023-04-03T04:54:59;3;3;
63305;PMS5003;50735;52.060;1.248;2023-04-03T04:57:31;3;3;
63305;PMS5003;50735;52.060;1.248;2023-04-03T05:00:03;6;4;
63305;PMS5003;50735;52.060;1.248;2023-04-03T05:02:36;4;4;
63305;PMS5003;50735;52.060;1.248;2023-04-03T05:05:08;3;3;
63305;PMS5003;50735;52.060;1.248;2023-04-03T05:07:40;5;4;
63305;PMS5003;50735;52.060;1.248;2023-04-03T05:10:12;3;3;
63305;PMS5003;50735;52.060;1.248;2023-04-03T05:12:44;6;4;
63305;PMS5003;50735;52.060;1.248;2023-04-03T05:15:16;6;4;
63305;PMS5003;50735;52.060;1.248;2023-04-03T05:17:47;7;6;
63305;PMS5003;50735;52.060;1.248;2023-04-03T05:20:19;13;6;
63305;PMS5003;50735;52.060;1.248;2023-04-03T05:22:51;4;4;
63305;PMS5003;50735;52.060;1.248;2023-04-03T05:25:23;4;4;
63305;PMS5003;50735;52.060;1.248;2023-04-03T05:27:55;7;7;
63305;PMS5003;50735;52.060;1.248;2023-04-03T05:30:27;10;6;
63305;PMS5003;50735;52.060;1.248;2023-04-03T05:32:59;11;9;
63305;PMS5003;50735;52.060;1.248;2023-04-03T05:35:32;11;9;
63305;PMS5003;50735;52.060;1.248;2023-04-03T05:38:04;10;9;
63305;PMS5003;50735;52.060;1.248;2023-04-03T05:40:36;6;5;
63305;PMS5003;50735;52.060;1.248;2023-04-03T05:43:08;12;11;
63305;PMS5003;50735;52.060;1.248;2023-04-03T05:45:39;9;9;
63305;PMS5003;50735;52.060;1.248;2023-04-03T05:48:11;12;6;
63305;PMS5003;50735;52.060;1.248;2023-04-03T05:50:43;9;6;
63305;PMS5003;50735;52.060;1.248;2023-04-03T05:53:16;5;5;
63305;PMS5003;50735;52.060;1.248;2023-04-03T05:55:52;8;8;
63305;PMS5003;50735;52.060;1.248;2023-04-03T05:58:24;11;5;
63305;PMS5003;50735;52.060;1.248;2023-04-03T06:00:56;10;6;
63305;PMS5003;50735;52.060;1.248;2023-04-03T06:03:28;10;6;
63305;PMS5003;50735;52.060;1.248;2023-04-03T06:06:02;10;6;
63305;PMS5003;50735;52.060;1.248;2023-04-03T06:08:35;10;7;
63305;PMS5003;50735;52.060;1.248;2023-04-03T06:11:07;5;5;
63305;PMS5003;50735;52.060;1.248;2023-04-03T06:13:39;9;6;
63305;PMS5003;50735;52.060;1.248;2023-04-03T06:16:11;6;6;
63305;PMS5003;50735;52.060;1.248;2023-04-03T06:18:44;10;7;
63305;PMS5003;50735;52.060;1.248;2023-04-03T06:21:16;6;4;
63305;PMS5003;50735;52.060;1.248;2023-04-03T06:23:47;10;6;
63305;PMS5003;50735;52.060;1.248;2023-04-03T06:26:19;4;4;
63305;PMS5003;50735;52.060;1.248;2023-04-03T06:28:51;6;5;
63305;PMS5003;50735;52.060;1.248;2023-04-03T06:31:23;12;5;
63305;PMS5003;50735;52.060;1.248;2023-04-03T06:33:55;3;3;
63305;PMS5003;50735;52.060;1.248;2023-04-03T06:36:27;5;5;
63305;PMS5003;50735;52.060;1.248;2023-04-03T06:38:59;7;6;
63305;PMS5003;50735;52.060;1.248;2023-04-03T06:41:31;5;4;
63305;PMS5003;50735;52.060;1.248;2023-04-03T06:44:04;5;5;
63305;PMS5003;50735;52.060;1.248;2023-04-03T06:46:36;7;5;
63305;PMS5003;50735;52.060;1.248;2023-04-03T06:49:09;7;5;
63305;PMS5003;50735;52.060;1.248;2023-04-03T06:51:41;8;7;
63305;PMS5003;50735;52.060;1.248;2023-04-03T06:54:13;9;6;
63305;PMS5003;50735;52.060;1.248;2023-04-03T06:56:45;5;5;
63305;PMS5003;50735;52.060;1.248;2023-04-03T06:59:16;4;4;
63305;PMS5003;50735;52.060;1.248;2023-04-03T07:01:48;5;5;
63305;PMS5003;50735;52.060;1.248;2023-04-03T07:04:20;7;4;
63305;PMS5003;50735;52.060;1.248;2023-04-03T07:06:52;4;4;
63305;PMS5003;50735;52.060;1.248;2023-04-03T07:09:24;10;10;
63305;PMS5003;50735;52.060;1.248;2023-04-03T07:11:56;4;4;
63305;PMS5003;50735;52.060;1.248;2023-04-03T07:14:28;6;3;
63305;PMS5003;50735;52.060;1.248;2023-04-03T07:17:00;4;4;
63305;PMS5003;50735;52.060;1.248;2023-04-03T07:19:32;5;4;
63305;PMS5003;50735;52.060;1.248;2023-04-03T07:22:03;9;6;
63305;PMS5003;50735;52.060;1.248;2023-04-03T07:24:35;13;4;
63305;PMS5003;50735;52.060;1.248;2023-04-03T07:27:07;7;5;
63305;PMS5003;50735;52.060;1.248;2023-04-03T07:29:39;6;5;
63305;PMS5003;50735;52.060;1.248;2023-04-03T07:32:11;6;3;
63305;PMS5003;50735;52.060;1.248;2023-04-03T07:34:43;7;6;
63305;PMS5003;50735;52.060;1.248;2023-04-03T07:37:15;8;5;
63305;PMS5003;50735;52.060;1.248;2023-04-03T07:39:47;7;6;
63305;PMS5003;50735;52.060;1.248;2023-04-03T07:42:19;10;7;
63305;PMS5003;50735;52.060;1.248;2023-04-03T07:44:51;9;8;
63305;PMS5003;50735;52.060;1.248;2023-04-03T07:47:23;7;6;
63305;PMS5003;50735;52.060;1.248;2023-04-03T07:49:55;6;4;
63305;PMS5003;50735;52.060;1.248;2023-04-03T07:52:27;8;5;
63305;PMS5003;50735;52.060;1.248;2023-04-03T07:54:58;6;6;
63305;PMS5003;50735;52.060;1.248;2023-04-03T07:57:30;5;5;
63305;PMS5003;50735;52.060;1.248;2023-04-03T08:00:02;6;5;
63305;PMS5003;50735;52.060;1.248;2023-04-03T08:02:34;8;5;
63305;PMS5003;50735;52.060;1.248;2023-04-03T08:05:06;9;7;
63305;PMS5003;50735;52.060;1.248;2023-04-03T08:07:38;5;4;
63305;PMS5003;50735;52.060;1.248;2023-04-03T08:10:10;4;4;
63305;PMS5003;50735;52.060;1.248;2023-04-03T08:12:45;6;6;
63305;PMS5003;50735;52.060;1.248;2023-04-03T08:15:17;7;6;
63305;PMS5003;50735;52.060;1.248;2023-04-03T08:17:49;5;5;
63305;PMS5003;50735;52.060;1.248;2023-04-03T08:20:21;6;6;
63305;PMS5003;50735;52.060;1.248;2023-04-03T08:22:53;5;5;
63305;PMS5003;50735;52.060;1.248;2023-04-03T08:25:25;6;5;
63305;PMS5003;50735;52.060;1.248;2023-04-03T08:27:57;10;7;
63305;PMS5003;50735;52.060;1.248;2023-04-03T08:30:29;6;6;
63305;PMS5003;50735;52.060;1.248;2023-04-03T08:33:00;7;4;
63305;PMS5003;50735;52.060;1.248;2023-04-03T08:35:32;10;6;
63305;PMS5003;50735;52.060;1.248;2023-04-03T08:38:04;7;4;
63305;PMS5003;50735;52.060;1.248;2023-04-03T08:40:36;5;5;
63305;PMS5003;50735;52.060;1.248;2023-04-03T08:43:15;6;6;
63305;PMS5003;50735;52.060;1.248;2023-04-03T08:46:02;5;5;
63305;PMS5003;50735;52.060;1.248;2023-04-03T08:48:38;5;5;
63305;PMS5003;50735;52.060;1.248;2023-04-03T08:51:14;8;5;
63305;PMS5003;50735;52.060;1.248;2023-04-03T08:53:49;6;6;
63305;PMS5003;50735;52.060;1.248;2023-04-03T08:56:28;8;7;
63305;PMS5003;50735;52.060;1.248;2023-04-03T08:59:04;8;6;
63305;PMS5003;50735;52.060;1.248;2023-04-03T09:01:41;6;6;
63305;PMS5003;50735;52.060;1.248;2023-04-03T09:04:15;8;6;
63305;PMS5003;50735;52.060;1.248;2023-04-03T09:06:49;8;6;
63305;PMS5003;50735;52.060;1.248;2023-04-03T09:09:29;10;8;
63305;PMS5003;50735;52.060;1.248;2023-04-03T09:12:04;7;7;
63305;PMS5003;50735;52.060;1.248;2023-04-03T09:14:46;5;5;
63305;PMS5003;50735;52.060;1.248;2023-04-03T09:17:31;8;8;
63305;PMS5003;50735;52.060;1.248;2023-04-03T09:20:16;13;7;
63305;PMS5003;50735;52.060;1.248;2023-04-03T09:22:54;13;9;
63305;PMS5003;50735;52.060;1.248;2023-04-03T09:25:27;7;7;
63305;PMS5003;50735;52.060;1.248;2023-04-03T09:28:02;9;8;
63305;PMS5003;50735;52.060;1.248;2023-04-03T09:30:36;9;8;
63305;PMS5003;50735;52.060;1.248;2023-04-03T09:33:09;9;9;
63305;PMS5003;50735;52.060;1.248;2023-04-03T09:35:42;7;7;
63305;PMS5003;50735;52.060;1.248;2023-04-03T09:38:16;8;8;
63305;PMS5003;50735;52.060;1.248;2023-04-03T09:40:51;9;7;
63305;PMS5003;50735;52.060;1.248;2023-04-03T09:43:37;6;6;
63305;PMS5003;50735;52.060;1.248;2023-04-03T09:46:20;8;6;
63305;PMS5003;50735;52.060;1.248;2023-04-03T09:49:01;10;7;
63305;PMS5003;50735;52.060;1.248;2023-04-03T09:51:35;6;6;
63305;PMS5003;50735;52.060;1.248;2023-04-03T09:54:24;10;7;
63305;PMS5003;50735;52.060;1.248;2023-04-03T09:57:05;11;9;
63305;PMS5003;50735;52.060;1.248;2023-04-03T09:59:42;8;7;
63305;PMS5003;50735;52.060;1.248;2023-04-03T10:02:34;9;9;
63305;PMS5003;50735;52.060;1.248;2023-04-03T10:05:25;7;5;
63305;PMS5003;50735;52.060;1.248;2023-04-03T10:08:08;9;7;
63305;PMS5003;50735;52.060;1.248;2023-04-03T10:10:43;6;6;
63305;PMS5003;50735;52.060;1.248;2023-04-03T10:13:17;11;8;
63305;PMS5003;50735;52.060;1.248;2023-04-03T10:15:51;10;8;
63305;PMS5003;50735;52.060;1.248;2023-04-03T10:18:29;8;6;
63305;PMS5003;50735;52.060;1.248;2023-04-03T10:21:05;9;8;
63305;PMS5003;50735;52.060;1.248;2023-04-03T10:23:42;5;5;
63305;PMS5003;50735;52.060;1.248;2023-04-03T10:26:23;7;4;
63305;PMS5003;50735;52.060;1.248;2023-04-03T10:29:09;6;6;
63305;PMS5003;50735;52.060;1.248;2023-04-03T10:31:52;9;6;
63305;PMS5003;50735;52.060;1.248;2023-04-03T10:34:32;6;6;
63305;PMS5003;50735;52.060;1.248;2023-04-03T10:37:10;6;6;
63305;PMS5003;50735;52.060;1.248;2023-04-03T10:39:52;7;7;
63305;PMS5003;50735;52.060;1.248;2023-04-03T10:42:32;7;7;
63305;PMS5003;50735;52.060;1.248;2023-04-03T10:45:17;8;8;
63305;PMS5003;50735;52.060;1.248;2023-04-03T10:47:57;8;8;
63305;PMS5003;50735;52.060;1.248;2023-04-03T10:50:38;7;7;
63305;PMS5003;50735;52.060;1.248;2023-04-03T10:53:17;5;5;
63305;PMS5003;50735;52.060;1.248;2023-04-03T10:55:56;8;8;
63305;PMS5003;50735;52.060;1.248;2023-04-03T10:58:38;10;9;
63305;PMS5003;50735;52.060;1.248;2023-04-03T11:01:16;7;5;
63305;PMS5003;50735;52.060;1.248;2023-04-03T11:03:53;9;8;
63305;PMS5003;50735;52.060;1.248;2023-04-03T11:06:30;7;6;
63305;PMS5003;50735;52.060;1.248;2023-04-03T11:09:11;6;6;
63305;PMS5003;50735;52.060;1.248;2023-04-03T11:11:53;6;6;
63305;PMS5003;50735;52.060;1.248;2023-04-03T11:14:31;10;7;
63305;PMS5003;50735;52.060;1.248;2023-04-03T11:17:09;9;8;
63305;PMS5003;50735;52.060;1.248;2023-04-03T11:19:52;11;9;
63305;PMS5003;50735;52.060;1.248;2023-04-03T11:22:32;8;7;
63305;PMS5003;50735;52.060;1.248;2023-04-03T11:25:13;9;7;
63305;PMS5003;50735;52.060;1.248;2023-04-03T11:27:51;6;6;
63305;PMS5003;50735;52.060;1.248;2023-04-03T11:30:28;8;7;
63305;PMS5003;50735;52.060;1.248;2023-04-03T11:33:08;9;8;
63305;PMS5003;50735;52.060;1.248;2023-04-03T11:35:51;4;4;
63305;PMS5003;50735;52.060;1.248;2023-04-03T11:38:26;7;5;
63305;PMS5003;50735;52.060;1.248;2023-04-03T11:41:02;6;6;
63305;PMS5003;50735;52.060;1.248;2023-04-03T11:43:39;5;4;
63305;PMS5003;50735;52.060;1.248;2023-04-03T11:46:13;4;4;
63305;PMS5003;50735;52.060;1.248;2023-04-03T11:48:47;6;5;
63305;PMS5003;50735;52.060;1.248;2023-04-03T11:51:39;5;5;
63305;PMS5003;50735;52.060;1.248;2023-04-03T11:54:42;5;5;
63305;PMS5003;50735;52.060;1.248;2023-04-03T11:58:22;3;3;
63305;PMS5003;50735;52.060;1.248;2023-04-03T12:00:59;4;4;
63305;PMS5003;50735;52.060;1.248;2023-04-03T12:03:35;7;6;
63305;PMS5003;50735;52.060;1.248;2023-04-03T12:06:52;6;5;
63305;PMS5003;50735;52.060;1.248;2023-04-03T12:09:33;7;7;
63305;PMS5003;50735;52.060;1.248;2023-04-03T12:12:34;9;6;
63305;PMS5003;50735;52.060;1.248;2023-04-03T12:15:26;8;8;
63305;PMS5003;50735;52.060;1.248;2023-04-03T12:18:32;6;6;
63305;PMS5003;50735;52.060;1.248;2023-04-03T12:21:12;6;6;
63305;PMS5003;50735;52.060;1.248;2023-04-03T12:24:01;10;7;
63305;PMS5003;50735;52.060;1.248;2023-04-03T12:26:36;9;8;
63305;PMS5003;50735;52.060;1.248;2023-04-03T12:29:16;8;8;
63305;PMS5003;50735;52.060;1.248;2023-04-03T12:31:55;9;8;
63305;PMS5003;50735;52.060;1.248;2023-04-03T12:34:46;5;5;
63305;PMS5003;50735;52.060;1.248;2023-04-03T12:37:34;10;8;
63305;PMS5003;50735;52.060;1.248;2023-04-03T12:40:16;7;7;
63305;PMS5003;50735;52.060;1.248;2023-04-03T12:43:01;7;7;
63305;PMS5003;50735;52.060;1.248;2023-04-03T12:45:42;4;3;
63305;PMS5003;50735;52.060;1.248;2023-04-03T12:48:18;7;7;
63305;PMS5003;50735;52.060;1.248;2023-04-03T12:50:55;6;6;
63305;PMS5003;50735;52.060;1.248;2023-04-03T12:53:32;3;3;
63305;PMS5003;50735;52.060;1.248;2023-04-03T12:56:23;8;6;
63305;PMS5003;50735;52.060;1.248;2023-04-03T12:59:12;7;5;
63305;PMS5003;50735;52.060;1.248;2023-04-03T13:01:52;8;8;
63305;PMS5003;50735;52.060;1.248;2023-04-03T13:04:25;7;7;
63305;PMS5003;50735;52.060;1.248;2023-04-03T13:06:58;7;5;
63305;PMS5003;50735;52.060;1.248;2023-04-03T13:09:30;7;5;
63305;PMS5003;50735;52.060;1.248;2023-04-03T13:12:03;5;5;
63305;PMS5003;50735;52.060;1.248;2023-04-03T13:14:51;6;5;
63305;PMS5003;50735;52.060;1.248;2023-04-03T13:17:25;4;3;
63305;PMS5003;50735;52.060;1.248;2023-04-03T13:20:09;4;4;
63305;PMS5003;50735;52.060;1.248;2023-04-03T13:22:45;9;7;
63305;PMS5003;50735;52.060;1.248;2023-04-03T13:25:21;9;6;
63305;PMS5003;50735;52.060;1.248;2023-04-03T13:27:55;4;4;
63305;PMS5003;50735;52.060;1.248;2023-04-03T13:30:30;6;6;
63305;PMS5003;50735;52.060;1.248;2023-04-03T13:33:17;8;7;
63305;PMS5003;50735;52.060;1.248;2023-04-03T13:35:56;6;6;
63305;PMS5003;50735;52.060;1.248;2023-04-03T13:38:31;6;6;
63305;PMS5003;50735;52.060;1.248;2023-04-03T13:41:05;6;6;
63305;PMS5003;50735;52.060;1.248;2023-04-03T13:43:54;9;7;
63305;PMS5003;50735;52.060;1.248;2023-04-03T13:46:27;8;8;
63305;PMS5003;50735;52.060;1.248;2023-04-03T13:48:59;7;6;
63305;PMS5003;50735;52.060;1.248;2023-04-03T13:51:49;5;5;
63305;PMS5003;50735;52.060;1.248;2023-04-03T13:54:22;7;7;
63305;PMS5003;50735;52.060;1.248;2023-04-03T13:56:56;7;7;
63305;PMS5003;50735;52.060;1.248;2023-04-03T13:59:30;7;7;
63305;PMS5003;50735;52.060;1.248;2023-04-03T14:02:12;6;6;
63305;PMS5003;50735;52.060;1.248;2023-04-03T14:04:49;6;6;
63305;PMS5003;50735;52.060;1.248;2023-04-03T14:07:24;6;6;
63305;PMS5003;50735;52.060;1.248;2023-04-03T14:09:56;5;5;
63305;PMS5003;50735;52.060;1.248;2023-04-03T14:12:30;9;5;
63305;PMS5003;50735;52.060;1.248;2023-04-03T14:15:07;8;6;
63305;PMS5003;50735;52.060;1.248;2023-04-03T14:17:48;5;5;
63305;PMS5003;50735;52.060;1.248;2023-04-03T14:20:21;3;3;
63305;PMS5003;50735;52.060;1.248;2023-04-03T14:22:55;5;3;
63305;PMS5003;50735;52.060;1.248;2023-04-03T14:25:27;1;1;
63305;PMS5003;50735;52.060;1.248;2023-04-03T14:27:59;2;2;
63305;PMS5003;50735;52.060;1.248;2023-04-03T14:30:33;4;4;
63305;PMS5003;50735;52.060;1.248;2023-04-03T14:33:05;3;3;
63305;PMS5003;50735;52.060;1.248;2023-04-03T14:35:38;2;2;
63305;PMS5003;50735;52.060;1.248;2023-04-03T14:38:12;5;2;
63305;PMS5003;50735;52.060;1.248;2023-04-03T14:40:54;2;1;
63305;PMS5003;50735;52.060;1.248;2023-04-03T14:43:26;6;5;
63305;PMS5003;50735;52.060;1.248;2023-04-03T14:45:58;3;3;
63305;PMS5003;50735;52.060;1.248;2023-04-03T14:48:29;4;3;
63305;PMS5003;50735;52.060;1.248;2023-04-03T14:51:01;3;2;
63305;PMS5003;50735;52.060;1.248;2023-04-03T14:53:34;5;3;
63305;PMS5003;50735;52.060;1.248;2023-04-03T14:56:10;2;2;
63305;PMS5003;50735;52.060;1.248;2023-04-03T14:58:43;2;2;
63305;PMS5003;50735;52.060;1.248;2023-04-03T15:01:15;4;3;
63305;PMS5003;50735;52.060;1.248;2023-04-03T15:03:47;3;2;
63305;PMS5003;50735;52.060;1.248;2023-04-03T15:06:19;2;2;
63305;PMS5003;50735;52.060;1.248;2023-04-03T15:08:51;2;2;
63305;PMS5003;50735;52.060;1.248;2023-04-03T15:11:23;2;2;
63305;PMS5003;50735;52.060;1.248;2023-04-03T15:13:55;2;2;
63305;PMS5003;50735;52.060;1.248;2023-04-03T15:16:27;1;1;
63305;PMS5003;50735;52.060;1.248;2023-04-03T15:18:58;4;3;
63305;PMS5003;50735;52.060;1.248;2023-04-03T15:21:30;3;1;
63305;PMS5003;50735;52.060;1.248;2023-04-03T15:24:02;4;2;
63305;PMS5003;50735;52.060;1.248;2023-04-03T15:26:35;2;1;
63305;PMS5003;50735;52.060;1.248;2023-04-03T15:29:07;3;1;
63305;PMS5003;50735;52.060;1.248;2023-04-03T15:31:39;2;2;
63305;PMS5003;50735;52.060;1.248;2023-04-03T15:34:11;4;2;
63305;PMS5003;50735;52.060;1.248;2023-04-03T15:36:43;1;1;
63305;PMS5003;50735;52.060;1.248;2023-04-03T15:39:15;2;2;
63305;PMS5003;50735;52.060;1.248;2023-04-03T15:41:47;3;2;
63305;PMS5003;50735;52.060;1.248;2023-04-03T15:44:19;0;0;
63305;PMS5003;50735;52.060;1.248;2023-04-03T15:46:52;2;2;
63305;PMS5003;50735;52.060;1.248;2023-04-03T15:49:24;2;2;
63305;PMS5003;50735;52.060;1.248;2023-04-03T15:51:56;2;2;
63305;PMS5003;50735;52.060;1.248;2023-04-03T15:54:27;7;7;
63305;PMS5003;50735;52.060;1.248;2023-04-03T15:56:59;9;7;
63305;PMS5003;50735;52.060;1.248;2023-04-03T15:59:31;5;5;
63305;PMS5003;50735;52.060;1.248;2023-04-03T16:02:03;5;3;
63305;PMS5003;50735;52.060;1.248;2023-04-03T16:04:40;3;3;
63305;PMS5003;50735;52.060;1.248;2023-04-03T16:07:11;5;2;
63305;PMS5003;50735;52.060;1.248;2023-04-03T16:09:43;2;2;
63305;PMS5003;50735;52.060;1.248;2023-04-03T16:12:15;5;3;
63305;PMS5003;50735;52.060;1.248;2023-04-03T16:14:47;3;3;
63305;PMS5003;50735;52.060;1.248;2023-04-03T16:17:19;5;4;
63305;PMS5003;50735;52.060;1.248;2023-04-03T16:19:50;4;4;
63305;PMS5003;50735;52.060;1.248;2023-04-03T16:22:23;3;3;
63305;PMS5003;50735;52.060;1.248;2023-04-03T16:24:57;4;3;
63305;PMS5003;50735;52.060;1.248;2023-04-03T16:27:29;3;3;
63305;PMS5003;50735;52.060;1.248;2023-04-03T16:30:00;4;4;
63305;PMS5003;50735;52.060;1.248;2023-04-03T16:32:32;2;2;
63305;PMS5003;50735;52.060;1.248;2023-04-03T16:35:05;6;5;
63305;PMS5003;50735;52.060;1.248;2023-04-03T16:37:38;3;3;
63305;PMS5003;50735;52.060;1.248;2023-04-03T16:40:10;3;3;
63305;PMS5003;50735;52.060;1.248;2023-04-03T16:42:43;6;3;
63305;PMS5003;50735;52.060;1.248;2023-04-03T16:45:15;3;3;
63305;PMS5003;50735;52.060;1.248;2023-04-03T16:47:46;7;7;
63305;PMS5003;50735;52.060;1.248;2023-04-03T16:50:18;5;5;
63305;PMS5003;50735;52.060;1.248;2023-04-03T16:52:50;7;4;
63305;PMS5003;50735;52.060;1.248;2023-04-03T16:55:22;6;5;
63305;PMS5003;50735;52.060;1.248;2023-04-03T16:57:54;3;3;
63305;PMS5003;50735;52.060;1.248;2023-04-03T17:00:25;4;4;
63305;PMS5003;50735;52.060;1.248;2023-04-03T17:02:57;5;5;
63305;PMS5003;50735;52.060;1.248;2023-04-03T17:05:29;3;3;
63305;PMS5003;50735;52.060;1.248;2023-04-03T17:08:02;8;6;
63305;PMS5003;50735;52.060;1.248;2023-04-03T17:10:34;4;3;
63305;PMS5003;50735;52.060;1.248;2023-04-03T17:13:06;2;2;
63305;PMS5003;50735;52.060;1.248;2023-04-03T17:15:38;4;4;
63305;PMS5003;50735;52.060;1.248;2023-04-03T17:18:10;7;4;
63305;PMS5003;50735;52.060;1.248;2023-04-03T17:20:42;5;5;
63305;PMS5003;50735;52.060;1.248;2023-04-03T17:23:13;8;6;
63305;PMS5003;50735;52.060;1.248;2023-04-03T17:25:45;6;4;
63305;PMS5003;50735;52.060;1.248;2023-04-03T17:28:17;3;3;
63305;PMS5003;50735;52.060;1.248;2023-04-03T17:30:49;5;4;
63305;PMS5003;50735;52.060;1.248;2023-04-03T17:33:21;4;4;
63305;PMS5003;50735;52.060;1.248;2023-04-03T17:35:55;3;3;
63305;PMS5003;50735;52.060;1.248;2023-04-03T17:38:28;6;3;
63305;PMS5003;50735;52.060;1.248;2023-04-03T17:41:01;4;4;
63305;PMS5003;50735;52.060;1.248;2023-04-03T17:43:36;6;6;